createdAt,value
2022-10-31T00:00:31.367Z,10.88
2022-10-31T00:02:58.212Z,10.68
2022-10-31T00:05:25.048Z,9.60
2022-10-31T00:07:54.656Z,10.27
2022-10-31T00:10:21.296Z,10.75
2022-10-31T00:12:47.853Z,10.60
2022-10-31T00:15:14.426Z,10.55
2022-10-31T00:17:40.992Z,10.90
2022-10-31T00:20:08.078Z,11.23
2022-10-31T00:22:34.625Z,10.90
2022-10-31T00:25:01.173Z,12.35
2022-10-31T00:27:27.766Z,11.27
2022-10-31T00:29:54.323Z,12.27
2022-10-31T00:32:20.881Z,11.68
2022-10-31T00:34:47.430Z,13.18
2022-10-31T00:37:13.990Z,12.43
2022-10-31T00:39:40.544Z,12.20
2022-10-31T00:42:07.082Z,13.30
2022-10-31T00:44:33.618Z,13.73
2022-10-31T00:47:00.181Z,13.38
2022-10-31T00:49:26.698Z,12.98
2022-10-31T00:51:53.262Z,13.27
2022-10-31T00:54:19.808Z,12.90
2022-10-31T00:56:46.407Z,12.77
2022-10-31T00:59:12.972Z,13.00
2022-10-31T01:01:39.697Z,13.50
2022-10-31T01:04:06.359Z,15.07
2022-10-31T01:06:32.903Z,14.10
2022-10-31T01:08:59.494Z,12.05
2022-10-31T01:11:26.097Z,13.02
2022-10-31T01:13:54.034Z,12.68
2022-10-31T01:16:23.631Z,12.80
2022-10-31T01:18:51.085Z,11.60
2022-10-31T01:21:23.141Z,12.45
2022-10-31T01:23:50.386Z,12.68
2022-10-31T01:26:20.688Z,11.88
2022-10-31T01:28:54.507Z,12.90
2022-10-31T01:31:22.689Z,13.10
2022-10-31T01:33:49.286Z,12.73
2022-10-31T01:36:24.739Z,12.68
2022-10-31T01:38:53.258Z,15.10
2022-10-31T01:43:49.534Z,13.15
2022-10-31T01:46:18.572Z,12.40
2022-10-31T01:48:45.139Z,14.02
2022-10-31T01:51:13.556Z,13.45
2022-10-31T01:53:40.852Z,13.88
2022-10-31T01:56:07.585Z,13.80
2022-10-31T01:58:34.399Z,14.27
2022-10-31T02:01:04.953Z,13.20
2022-10-31T02:03:34.524Z,13.73
2022-10-31T02:06:01.143Z,11.98
2022-10-31T02:08:30.374Z,12.50
2022-10-31T02:11:01.952Z,12.73
2022-10-31T02:13:29.521Z,12.88
2022-10-31T02:15:58.595Z,13.82
2022-10-31T02:18:27.658Z,12.52
2022-10-31T02:21:03.388Z,11.27
2022-10-31T02:23:55.723Z,11.05
2022-10-31T02:27:00.144Z,11.82
2022-10-31T02:29:26.655Z,12.32
2022-10-31T02:32:14.529Z,13.77
2022-10-31T02:34:47.175Z,14.68
2022-10-31T02:37:50.757Z,13.68
2022-10-31T02:40:27.448Z,13.98
2022-10-31T02:43:44.450Z,14.10
2022-10-31T02:46:16.658Z,12.82
2022-10-31T02:48:44.754Z,12.07
2022-10-31T02:51:12.496Z,13.23
2022-10-31T02:53:39.423Z,11.48
2022-10-31T02:56:26.222Z,11.35
2022-10-31T02:58:56.189Z,12.18
2022-10-31T03:01:35.480Z,12.98
2022-10-31T03:04:05.197Z,11.73
2022-10-31T03:06:40.721Z,11.27
2022-10-31T03:09:58.504Z,10.25
2022-10-31T03:12:34.918Z,10.27
2022-10-31T03:15:26.353Z,10.15
2022-10-31T03:18:09.905Z,10.68
2022-10-31T03:20:43.473Z,13.50
2022-10-31T03:23:13.638Z,12.85
2022-10-31T03:25:40.618Z,11.93
2022-10-31T03:28:08.510Z,11.80
2022-10-31T03:30:37.202Z,13.40
2022-10-31T03:33:07.003Z,13.07
2022-10-31T03:35:34.069Z,14.25
2022-10-31T03:38:05.536Z,12.60
2022-10-31T03:40:36.310Z,12.63
2022-10-31T03:45:32.065Z,13.88
2022-10-31T03:47:59.989Z,13.30
2022-10-31T03:50:33.432Z,15.77
2022-10-31T03:53:07.579Z,13.60
2022-10-31T03:55:53.379Z,13.80
2022-10-31T03:58:26.869Z,14.30
2022-10-31T04:00:55.636Z,13.43
2022-10-31T04:03:28.170Z,14.52
2022-10-31T04:05:56.645Z,13.93
2022-10-31T04:08:26.796Z,15.10
2022-10-31T04:10:53.864Z,14.38
2022-10-31T04:13:24.436Z,13.25
2022-10-31T04:15:53.390Z,12.75
2022-10-31T04:18:19.982Z,12.98
2022-10-31T04:20:49.719Z,11.23
2022-10-31T04:23:21.726Z,12.68
2022-10-31T04:25:48.287Z,12.73
2022-10-31T04:28:14.898Z,12.95
2022-10-31T04:30:41.569Z,13.55
2022-10-31T04:33:08.128Z,11.80
2022-10-31T04:35:34.675Z,11.73
2022-10-31T04:38:01.275Z,13.40
2022-10-31T04:40:27.866Z,12.75
2022-10-31T04:42:54.595Z,12.52
2022-10-31T04:45:21.527Z,13.35
2022-10-31T04:47:48.217Z,15.38
2022-10-31T04:50:14.785Z,15.82
2022-10-31T04:52:43.236Z,14.77
2022-10-31T04:55:10.762Z,16.35
2022-10-31T04:57:44.554Z,15.15
2022-10-31T05:00:12.726Z,14.90
2022-10-31T05:02:56.705Z,14.50
2022-10-31T05:05:26.728Z,14.73
2022-10-31T05:07:53.686Z,13.57
2022-10-31T05:10:26.048Z,14.35
2022-10-31T05:12:57.675Z,12.68
2022-10-31T05:15:26.020Z,13.90
2022-10-31T05:17:53.310Z,15.00
2022-10-31T05:20:22.197Z,16.03
2022-10-31T05:25:16.989Z,15.88
2022-10-31T05:27:45.714Z,16.75
2022-10-31T05:30:14.821Z,15.55
2022-10-31T05:32:42.905Z,14.57
2022-10-31T05:35:11.491Z,13.82
2022-10-31T05:40:08.309Z,13.00
2022-10-31T05:42:35.792Z,12.85
2022-10-31T05:45:02.508Z,13.80
2022-10-31T05:47:29.091Z,14.52
2022-10-31T05:49:55.745Z,14.18
2022-10-31T05:52:22.322Z,12.82
2022-10-31T05:54:48.855Z,16.35
2022-10-31T05:57:15.470Z,17.60
2022-10-31T05:59:42.106Z,15.63
2022-10-31T06:02:08.667Z,15.23
2022-10-31T06:04:35.280Z,16.05
2022-10-31T06:07:01.894Z,14.30
2022-10-31T06:09:28.478Z,15.93
2022-10-31T06:11:55.006Z,16.52
2022-10-31T06:14:21.561Z,14.93
2022-10-31T06:16:48.139Z,15.98
2022-10-31T06:19:14.739Z,14.48
2022-10-31T06:21:41.282Z,14.73
2022-10-31T06:24:08.040Z,15.10
2022-10-31T06:26:34.575Z,15.25
2022-10-31T06:29:03.880Z,16.20
2022-10-31T06:31:30.946Z,16.38
2022-10-31T06:33:57.703Z,16.65
2022-10-31T06:36:24.375Z,14.27
2022-10-31T06:38:51.009Z,15.88
2022-10-31T06:41:17.588Z,17.63
2022-10-31T06:43:47.446Z,16.20
2022-10-31T06:46:14.353Z,16.02
2022-10-31T06:48:43.962Z,15.07
2022-10-31T06:51:10.661Z,15.10
2022-10-31T06:53:37.248Z,15.48
2022-10-31T06:56:03.985Z,19.38
2022-10-31T06:58:30.530Z,16.95
2022-10-31T07:01:00.433Z,17.15
2022-10-31T07:03:27.133Z,18.38
2022-10-31T07:05:56.189Z,15.52
2022-10-31T07:08:22.777Z,14.27
2022-10-31T07:10:57.192Z,17.35
2022-10-31T07:13:26.644Z,16.30
2022-10-31T07:16:01.287Z,17.45
2022-10-31T07:18:28.346Z,20.77
2022-10-31T07:20:54.983Z,17.60
2022-10-31T07:23:22.104Z,17.92
2022-10-31T07:25:48.863Z,17.48
2022-10-31T07:28:15.430Z,16.83
2022-10-31T07:30:41.993Z,18.02
2022-10-31T07:33:09.586Z,17.75
2022-10-31T07:35:36.317Z,15.90
2022-10-31T07:38:13.503Z,17.10
2022-10-31T07:40:41.243Z,18.83
2022-10-31T07:43:11.607Z,16.85
2022-10-31T07:45:39.721Z,18.10
2022-10-31T07:48:06.521Z,17.20
2022-10-31T07:50:36.906Z,17.20
2022-10-31T07:53:08.695Z,17.35
2022-10-31T07:55:35.942Z,17.20
2022-10-31T07:58:07.313Z,16.67
2022-10-31T08:00:35.559Z,21.52
2022-10-31T08:03:06.081Z,17.77
2022-10-31T08:05:33.742Z,18.30
2022-10-31T08:08:00.646Z,15.90
2022-10-31T08:10:28.456Z,15.60
2022-10-31T08:13:02.029Z,14.93
2022-10-31T08:15:29.130Z,13.68
2022-10-31T08:17:55.681Z,15.30
2022-10-31T08:20:22.394Z,15.10
2022-10-31T08:23:03.470Z,21.75
2022-10-31T08:25:37.197Z,18.83
2022-10-31T08:28:06.513Z,17.00
2022-10-31T08:30:34.723Z,17.50
2022-10-31T08:33:09.682Z,17.55
2022-10-31T08:35:36.249Z,16.90
2022-10-31T08:38:03.482Z,16.30
2022-10-31T08:40:32.413Z,14.88
2022-10-31T08:43:13.868Z,17.05
2022-10-31T08:45:40.781Z,20.30
2022-10-31T08:48:11.295Z,16.88
2022-10-31T08:50:38.500Z,18.15
2022-10-31T08:53:07.146Z,18.52
2022-10-31T08:55:36.356Z,17.90
2022-10-31T08:58:04.375Z,20.52
2022-10-31T09:00:31.278Z,17.00
2022-10-31T09:03:03.803Z,18.52
2022-10-31T09:05:30.668Z,20.67
2022-10-31T09:08:02.023Z,18.85
2022-10-31T09:10:29.709Z,16.98
2022-10-31T09:13:07.274Z,17.55
2022-10-31T09:15:39.390Z,19.30
2022-10-31T09:18:06.934Z,17.88
2022-10-31T09:20:34.563Z,19.23
2022-10-31T09:23:03.569Z,19.10
2022-10-31T09:25:30.565Z,18.75
2022-10-31T09:28:01.782Z,17.38
2022-10-31T09:30:30.222Z,20.05
2022-10-31T09:32:57.986Z,20.50
2022-10-31T09:35:25.861Z,18.75
2022-10-31T09:38:00.738Z,18.75
2022-10-31T09:40:42.147Z,18.20
2022-10-31T09:43:45.873Z,19.25
2022-10-31T09:46:36.915Z,18.42
2022-10-31T09:49:21.774Z,21.58
2022-10-31T09:54:54.211Z,18.52
2022-10-31T09:57:26.875Z,18.15
2022-10-31T09:59:53.519Z,19.55
2022-10-31T10:02:34.854Z,17.33
2022-10-31T10:05:07.038Z,19.67
2022-10-31T10:07:33.533Z,22.38
2022-10-31T10:10:16.031Z,20.42
2022-10-31T10:13:08.106Z,19.55
2022-10-31T10:15:57.429Z,18.17
2022-10-31T10:18:51.737Z,18.42
2022-10-31T10:21:43.675Z,19.63
2022-10-31T10:24:25.477Z,21.38
2022-10-31T10:26:57.404Z,19.90
2022-10-31T10:29:39.096Z,20.52
2022-10-31T10:32:12.822Z,20.27
2022-10-31T10:34:46.624Z,22.40
2022-10-31T10:37:34.174Z,19.50
2022-10-31T10:40:24.946Z,17.63
2022-10-31T10:43:24.902Z,16.80
2022-10-31T10:46:32.791Z,18.88
2022-10-31T10:49:23.916Z,17.75
2022-10-31T10:52:35.198Z,19.48
2022-10-31T10:55:04.343Z,17.38
2022-10-31T10:57:33.766Z,16.50
2022-10-31T11:00:04.331Z,15.75
2022-10-31T11:02:33.058Z,17.05
2022-10-31T11:05:01.846Z,17.85
2022-10-31T11:07:39.734Z,16.98
2022-10-31T11:10:14.142Z,16.85
2022-10-31T11:12:41.129Z,17.55
2022-10-31T11:15:22.540Z,15.23
2022-10-31T11:17:56.587Z,14.35
2022-10-31T11:20:32.831Z,15.00
2022-10-31T11:23:17.908Z,14.98
2022-10-31T11:26:05.205Z,15.40
2022-10-31T11:28:35.734Z,15.25
2022-10-31T11:31:07.516Z,13.65
2022-10-31T11:33:36.666Z,13.98
2022-10-31T11:36:11.451Z,12.57
2022-10-31T11:38:42.391Z,14.38
2022-10-31T11:41:08.901Z,14.05
2022-10-31T11:43:35.490Z,12.90
2022-10-31T11:46:12.674Z,12.88
2022-10-31T11:48:39.243Z,12.95
2022-10-31T11:51:06.113Z,12.50
2022-10-31T11:53:35.131Z,12.25
2022-10-31T11:56:06.298Z,11.13
2022-10-31T11:58:32.954Z,10.35
2022-10-31T12:00:59.847Z,9.98
2022-10-31T12:03:49.849Z,10.75
2022-10-31T12:06:24.442Z,11.55
2022-10-31T12:08:51.034Z,11.25
2022-10-31T12:11:32.990Z,12.48
2022-10-31T12:14:34.705Z,12.30
2022-10-31T12:17:07.608Z,10.07
2022-10-31T12:19:51.336Z,11.55
2022-10-31T12:22:39.343Z,10.80
2022-10-31T12:25:31.763Z,10.80
2022-10-31T12:28:05.864Z,12.20
2022-10-31T12:30:35.426Z,11.15
2022-10-31T12:33:23.818Z,10.50
2022-10-31T12:38:35.214Z,11.63
2022-10-31T12:41:20.386Z,11.13
2022-10-31T12:43:46.994Z,11.40
2022-10-31T12:46:30.475Z,10.50
2022-10-31T12:49:09.383Z,10.77
2022-10-31T12:51:49.438Z,10.10
2022-10-31T12:54:59.290Z,10.82
2022-10-31T12:57:42.579Z,11.35
2022-10-31T13:00:17.524Z,10.63
2022-10-31T13:02:44.090Z,9.27
2022-10-31T13:05:15.986Z,11.07
2022-10-31T13:07:47.795Z,10.20
2022-10-31T13:10:31.560Z,9.45
2022-10-31T13:13:03.891Z,9.13
2022-10-31T13:15:34.490Z,9.75
2022-10-31T13:18:06.055Z,9.68
2022-10-31T13:20:44.356Z,8.90
2022-10-31T13:26:39.065Z,8.85
2022-10-31T13:29:32.895Z,7.93
2022-10-31T13:32:01.782Z,8.20
2022-10-31T13:34:40.792Z,7.45
2022-10-31T13:37:17.323Z,6.88
2022-10-31T13:40:00.278Z,7.95
2022-10-31T13:42:32.888Z,7.38
2022-10-31T13:45:34.735Z,7.90
2022-10-31T13:48:18.052Z,7.60
2022-10-31T13:50:57.188Z,8.63
2022-10-31T13:53:40.663Z,7.13
2022-10-31T13:56:10.305Z,8.05
2022-10-31T13:58:37.291Z,6.63
2022-10-31T14:01:15.044Z,5.93
2022-10-31T14:04:07.656Z,6.03
2022-10-31T14:06:46.422Z,6.05
2022-10-31T14:09:22.896Z,7.00
2022-10-31T14:11:50.698Z,6.97
2022-10-31T14:14:18.306Z,7.55
2022-10-31T14:16:46.156Z,6.80
2022-10-31T14:19:19.059Z,7.55
2022-10-31T14:21:47.712Z,7.60
2022-10-31T14:24:16.856Z,6.65
2022-10-31T14:26:58.021Z,6.65
2022-10-31T14:29:27.839Z,6.60
2022-10-31T14:32:13.636Z,6.18
2022-10-31T14:34:44.498Z,5.38
2022-10-31T14:37:22.682Z,6.60
2022-10-31T14:40:20.285Z,6.03
2022-10-31T14:43:05.383Z,6.85
2022-10-31T14:45:40.778Z,7.55
2022-10-31T14:48:34.631Z,7.80
2022-10-31T14:51:03.770Z,5.68
2022-10-31T14:53:43.402Z,7.10
2022-10-31T14:56:11.502Z,6.35
2022-10-31T14:58:44.344Z,6.97
2022-10-31T15:01:29.755Z,6.15
2022-10-31T15:04:28.167Z,5.95
2022-10-31T15:07:08.146Z,5.75
2022-10-31T15:09:36.063Z,6.50
2022-10-31T15:12:21.956Z,6.32
2022-10-31T15:14:48.622Z,5.20
2022-10-31T15:17:15.259Z,5.78
2022-10-31T15:19:43.555Z,6.03
2022-10-31T15:22:19.044Z,4.75
2022-10-31T15:24:46.386Z,5.45
2022-10-31T15:27:19.920Z,5.40
2022-10-31T15:29:54.502Z,4.97
2022-10-31T15:32:23.807Z,6.28
2022-10-31T15:34:52.650Z,5.45
2022-10-31T15:37:23.613Z,7.25
2022-10-31T15:39:50.718Z,5.65
2022-10-31T15:42:39.701Z,5.72
2022-10-31T15:45:18.326Z,6.45
2022-10-31T15:48:05.816Z,7.70
2022-10-31T15:50:37.375Z,5.68
2022-10-31T15:53:04.806Z,5.90
2022-10-31T15:55:36.104Z,6.20
2022-10-31T15:58:05.741Z,5.55
2022-10-31T16:00:36.014Z,5.63
2022-10-31T16:03:14.826Z,5.10
2022-10-31T16:05:50.082Z,5.97
2022-10-31T16:08:32.070Z,6.45
2022-10-31T16:11:17.602Z,5.35
2022-10-31T16:14:11.597Z,6.40
2022-10-31T16:16:45.557Z,5.93
2022-10-31T16:19:28.966Z,6.15
2022-10-31T16:22:05.091Z,6.15
2022-10-31T16:24:33.518Z,5.60
2022-10-31T16:27:06.104Z,5.40
2022-10-31T16:29:47.254Z,6.90
2022-10-31T16:32:34.154Z,5.68
2022-10-31T16:35:10.418Z,7.15
2022-10-31T16:37:41.166Z,5.97
2022-10-31T16:40:08.938Z,7.25
2022-10-31T16:42:35.576Z,6.57
2022-10-31T16:45:02.170Z,5.72
2022-10-31T16:47:28.841Z,7.00
2022-10-31T16:49:55.479Z,6.38
2022-10-31T16:52:22.245Z,6.63
2022-10-31T16:54:48.817Z,7.30
2022-10-31T16:57:18.703Z,6.25
2022-10-31T16:59:47.479Z,6.53
2022-10-31T17:02:16.422Z,6.03
2022-10-31T17:04:43.597Z,6.32
2022-10-31T17:07:10.234Z,7.72
2022-10-31T17:09:36.825Z,7.30
2022-10-31T17:12:04.537Z,6.63
2022-10-31T17:14:31.602Z,6.70
2022-10-31T17:16:58.146Z,7.32
2022-10-31T17:19:24.720Z,7.00
2022-10-31T17:21:51.322Z,7.10
2022-10-31T17:24:17.856Z,7.30
2022-10-31T17:26:44.408Z,7.60
2022-10-31T17:29:11.015Z,7.03
2022-10-31T17:31:39.299Z,7.40
2022-10-31T17:34:07.050Z,7.35
2022-10-31T17:36:34.701Z,7.70
2022-10-31T17:39:01.448Z,7.63
2022-10-31T17:41:28.018Z,7.60
2022-10-31T17:43:56.153Z,7.70
2022-10-31T17:46:22.826Z,7.07
2022-10-31T17:48:49.396Z,7.05
2022-10-31T17:51:15.955Z,7.05
2022-10-31T17:53:42.579Z,6.68
2022-10-31T17:56:10.114Z,7.60
2022-10-31T17:58:37.761Z,7.82
2022-10-31T18:01:13.713Z,8.57
2022-10-31T18:03:41.200Z,6.82
2022-10-31T18:06:08.787Z,7.63
2022-10-31T18:08:37.003Z,8.20
2022-10-31T18:11:09.618Z,8.63
2022-10-31T18:13:37.045Z,7.55
2022-10-31T18:16:11.017Z,7.70
2022-10-31T18:18:37.634Z,7.38
2022-10-31T18:21:04.477Z,7.88
2022-10-31T18:23:31.096Z,8.38
2022-10-31T18:25:57.767Z,7.75
2022-10-31T18:28:24.317Z,8.85
2022-10-31T18:30:50.999Z,8.60
2022-10-31T18:33:17.542Z,8.30
2022-10-31T18:35:44.178Z,8.35
2022-10-31T18:38:10.904Z,8.48
2022-10-31T18:40:37.510Z,8.52
2022-10-31T18:43:04.120Z,8.63
2022-10-31T18:45:41.480Z,8.82
2022-10-31T18:48:14.440Z,10.02
2022-10-31T18:50:41.520Z,10.30
2022-10-31T18:53:08.193Z,10.70
2022-10-31T18:55:38.854Z,10.98
2022-10-31T18:58:05.474Z,10.25
2022-10-31T19:00:32.058Z,9.55
2022-10-31T19:02:58.864Z,10.75
2022-10-31T19:05:25.634Z,10.02
2022-10-31T19:07:52.257Z,10.25
2022-10-31T19:10:18.806Z,10.63
2022-10-31T19:12:45.346Z,11.15
2022-10-31T19:15:11.891Z,12.00
2022-10-31T19:17:38.439Z,11.65
2022-10-31T19:20:05.489Z,11.30
2022-10-31T19:22:32.325Z,10.23
2022-10-31T19:24:58.885Z,10.88
2022-10-31T19:27:28.075Z,9.80
2022-10-31T19:29:54.683Z,9.80
2022-10-31T19:32:21.244Z,10.48
2022-10-31T19:34:47.801Z,9.90
2022-10-31T19:37:14.729Z,10.70
2022-10-31T19:39:44.179Z,9.75
2022-10-31T19:42:11.968Z,10.63
2022-10-31T19:44:38.535Z,10.05
2022-10-31T19:47:05.362Z,8.75
2022-10-31T19:49:31.976Z,10.00
2022-10-31T19:51:58.567Z,9.57
2022-10-31T19:54:25.112Z,10.40
2022-10-31T19:56:51.686Z,10.15
2022-10-31T19:59:18.276Z,9.23
2022-10-31T20:01:44.946Z,9.88
2022-10-31T20:04:11.722Z,10.52
2022-10-31T20:06:40.313Z,8.90
2022-10-31T20:11:36.255Z,10.90
2022-10-31T20:14:02.975Z,10.82
2022-10-31T20:16:29.994Z,10.88
2022-10-31T20:18:56.929Z,10.00
2022-10-31T20:21:26.474Z,9.20
2022-10-31T20:24:01.128Z,8.52
2022-10-31T20:26:28.872Z,10.13
2022-10-31T20:28:56.726Z,9.60
2022-10-31T20:31:27.464Z,10.18
2022-10-31T20:33:54.322Z,9.75
2022-10-31T20:36:23.797Z,9.35
2022-10-31T20:38:51.844Z,9.85
2022-10-31T20:41:18.895Z,9.48
2022-10-31T20:43:45.667Z,9.00
2022-10-31T20:46:17.219Z,10.00
2022-10-31T20:48:44.017Z,9.80
2022-10-31T20:53:51.979Z,9.68
2022-10-31T20:56:20.754Z,9.35
2022-10-31T20:58:47.721Z,9.70
2022-10-31T21:01:22.534Z,10.38
2022-10-31T21:03:49.951Z,9.27
2022-10-31T21:06:17.511Z,10.15
2022-10-31T21:08:44.763Z,9.27
2022-10-31T21:11:16.445Z,9.60
2022-10-31T21:13:44.418Z,9.30
2022-10-31T21:16:13.665Z,9.15
2022-10-31T21:18:41.984Z,8.95
2022-10-31T21:21:14.084Z,8.77
2022-10-31T21:23:40.956Z,10.00
2022-10-31T21:26:27.324Z,8.95
2022-10-31T21:28:56.108Z,8.98
2022-10-31T21:31:23.659Z,9.68
2022-10-31T21:33:50.255Z,9.27
2022-10-31T21:36:17.404Z,8.90
2022-10-31T21:38:44.216Z,10.20
2022-10-31T21:41:15.305Z,8.98
2022-10-31T21:43:44.442Z,9.77
2022-10-31T21:46:21.729Z,9.70
2022-10-31T21:48:48.794Z,9.98
2022-10-31T21:51:21.109Z,9.25
2022-10-31T21:54:06.830Z,8.70
2022-10-31T21:56:33.723Z,8.77
2022-10-31T21:59:00.460Z,9.02
2022-10-31T22:01:28.598Z,9.65
2022-10-31T22:03:55.805Z,8.52
2022-10-31T22:06:23.128Z,9.35
2022-10-31T22:08:49.673Z,8.05
2022-10-31T22:11:17.748Z,8.65
2022-10-31T22:13:46.754Z,9.20
2022-10-31T22:16:22.351Z,9.02
2022-10-31T22:18:52.780Z,8.40
2022-10-31T22:21:20.750Z,8.57
2022-10-31T22:23:55.157Z,8.88
2022-10-31T22:26:22.474Z,8.55
2022-10-31T22:28:55.935Z,8.48
2022-10-31T22:31:23.992Z,8.65
2022-10-31T22:33:51.078Z,8.20
2022-10-31T22:36:22.466Z,8.18
2022-10-31T22:38:49.053Z,9.25
2022-10-31T22:41:20.943Z,7.85
2022-10-31T22:43:48.174Z,7.70
2022-10-31T22:46:17.384Z,8.13
2022-10-31T22:48:54.707Z,8.13
2022-10-31T22:51:23.694Z,7.30
2022-10-31T22:53:50.912Z,8.30
2022-10-31T22:56:20.309Z,8.45
2022-10-31T22:58:47.749Z,7.65
2022-10-31T23:01:16.633Z,8.75
2022-10-31T23:03:43.415Z,8.23
2022-10-31T23:06:13.041Z,8.55
2022-10-31T23:08:40.398Z,7.68
2022-10-31T23:11:24.315Z,7.75
2022-10-31T23:14:12.122Z,7.53
2022-10-31T23:16:52.079Z,6.57
2022-10-31T23:19:23.091Z,7.45
2022-10-31T23:21:55.702Z,7.32
2022-10-31T23:24:34.655Z,9.02
2022-10-31T23:27:09.107Z,7.43
2022-10-31T23:29:47.772Z,8.02
2022-10-31T23:32:21.871Z,7.05
2022-10-31T23:34:50.121Z,7.13
2022-10-31T23:37:18.075Z,7.45
2022-10-31T23:39:44.865Z,7.10
2022-10-31T23:42:11.590Z,7.45
2022-10-31T23:44:38.267Z,7.00
2022-10-31T23:47:05.405Z,7.93
2022-10-31T23:49:32.229Z,5.78
2022-10-31T23:51:58.910Z,5.75
2022-10-31T23:54:26.679Z,6.05
2022-10-31T23:56:53.901Z,6.72
2022-10-31T23:59:20.632Z,7.07
